createdAt,value
2022-09-15T00:01:47.670Z,94.58
2022-09-15T00:04:16.887Z,94.78
2022-09-15T00:06:55.833Z,94.62
2022-09-15T00:09:30.572Z,94.54
2022-09-15T00:12:02.333Z,94.60
2022-09-15T00:14:32.204Z,94.53
2022-09-15T00:17:01.331Z,94.34
2022-09-15T00:19:32.333Z,94.31
2022-09-15T00:22:07.938Z,94.43
2022-09-15T00:24:39.383Z,94.57
2022-09-15T00:27:08.955Z,94.31
2022-09-15T00:29:38.383Z,94.81
2022-09-15T00:32:07.715Z,94.83
2022-09-15T00:34:38.413Z,94.82
2022-09-15T00:37:14.024Z,94.88
2022-09-15T00:39:46.787Z,94.67
2022-09-15T00:42:21.330Z,94.56
2022-09-15T00:44:52.250Z,94.61
2022-09-15T00:47:26.791Z,94.70
2022-09-15T00:50:01.887Z,94.43
2022-09-15T00:52:43.030Z,94.22
2022-09-15T00:55:26.924Z,94.77
2022-09-15T00:58:03.438Z,94.49
2022-09-15T01:00:33.326Z,94.31
2022-09-15T01:03:03.978Z,94.45
2022-09-15T01:05:42.015Z,94.51
2022-09-15T01:08:24.855Z,94.66
2022-09-15T01:10:56.629Z,94.35
2022-09-15T01:13:29.494Z,94.56
2022-09-15T01:22:53.216Z,94.39
2022-09-15T01:25:53.319Z,93.92
2022-09-15T01:28:37.830Z,94.10
2022-09-15T01:31:29.567Z,94.08
2022-09-15T01:34:18.497Z,94.06
2022-09-15T01:37:18.166Z,94.40
2022-09-15T01:39:50.285Z,94.24
2022-09-15T01:42:22.961Z,94.43
2022-09-15T01:45:06.920Z,94.39
2022-09-15T01:47:36.789Z,94.21
2022-09-15T01:50:23.734Z,94.10
2022-09-15T01:52:59.610Z,94.03
2022-09-15T01:55:38.224Z,94.13
2022-09-15T01:58:46.094Z,94.07
2022-09-15T02:01:26.778Z,94.17
2022-09-15T02:04:19.281Z,94.44
2022-09-15T02:07:16.711Z,94.21
2022-09-15T02:09:54.730Z,94.07
2022-09-15T02:13:01.684Z,94.20
2022-09-15T02:15:39.071Z,94.53
2022-09-15T02:18:16.103Z,94.22
2022-09-15T02:20:54.909Z,94.24
2022-09-15T02:23:45.588Z,94.16
2022-09-15T02:26:25.457Z,94.15
2022-09-15T02:28:58.509Z,94.04
2022-09-15T02:31:30.932Z,94.13
2022-09-15T02:34:07.225Z,94.02
2022-09-15T02:36:35.821Z,94.13
2022-09-15T02:39:09.509Z,94.06
2022-09-15T02:41:42.028Z,94.12
2022-09-15T02:44:15.374Z,94.17
2022-09-15T02:46:45.648Z,94.30
2022-09-15T02:49:19.685Z,94.37
2022-09-15T02:51:47.775Z,94.63
2022-09-15T02:54:19.457Z,94.66
2022-09-15T02:56:47.826Z,95.17
2022-09-15T02:59:17.353Z,94.78
2022-09-15T03:01:45.444Z,94.71
2022-09-15T03:04:14.064Z,94.40
2022-09-15T03:06:44.106Z,94.39
2022-09-15T03:09:17.722Z,94.39
2022-09-15T03:11:49.002Z,94.24
2022-09-15T03:14:17.142Z,94.27
2022-09-15T03:16:45.179Z,94.06
2022-09-15T03:19:13.524Z,93.82
2022-09-15T03:21:46.986Z,93.76
2022-09-15T03:24:19.314Z,93.98
2022-09-15T03:26:49.653Z,93.96
2022-09-15T03:29:20.851Z,93.85
2022-09-15T03:31:52.647Z,93.87
2022-09-15T03:34:22.774Z,93.85
2022-09-15T03:37:09.316Z,93.84
2022-09-15T03:39:47.093Z,93.73
2022-09-15T03:42:16.131Z,93.52
2022-09-15T03:45:05.602Z,93.48
2022-09-15T03:47:39.908Z,93.50
2022-09-15T03:50:10.178Z,93.59
2022-09-15T03:52:38.730Z,93.80
2022-09-15T03:55:16.384Z,93.82
2022-09-15T03:57:59.598Z,93.86
2022-09-15T04:00:31.836Z,93.23
2022-09-15T04:03:07.136Z,92.56
2022-09-15T04:05:37.328Z,92.56
2022-09-15T04:08:05.909Z,92.53
2022-09-15T04:10:38.947Z,92.82
2022-09-15T04:13:13.014Z,92.87
2022-09-15T04:15:45.383Z,92.78
2022-09-15T04:18:19.782Z,92.70
2022-09-15T04:20:48.722Z,92.85
2022-09-15T04:23:18.453Z,92.99
2022-09-15T04:25:56.823Z,93.23
2022-09-15T04:28:26.768Z,93.39
2022-09-15T04:31:03.914Z,93.28
2022-09-15T04:34:00.493Z,92.92
2022-09-15T04:36:39.679Z,92.80
2022-09-15T04:39:39.560Z,92.63
2022-09-15T04:42:08.233Z,92.73
2022-09-15T04:44:36.467Z,92.66
2022-09-15T04:47:08.113Z,92.73
2022-09-15T04:49:45.505Z,92.81
2022-09-15T04:52:26.889Z,92.92
2022-09-15T04:55:00.219Z,93.14
2022-09-15T04:57:32.142Z,93.15
2022-09-15T05:00:14.160Z,93.10
2022-09-15T05:02:46.179Z,93.13
2022-09-15T05:05:18.360Z,93.33
2022-09-15T05:07:57.138Z,93.07
2022-09-15T05:10:35.340Z,93.16
2022-09-15T05:13:21.271Z,93.30
2022-09-15T05:15:52.168Z,93.26
2022-09-15T05:18:32.531Z,93.27
2022-09-15T05:21:12.281Z,93.08
2022-09-15T05:23:48.951Z,92.99
2022-09-15T05:26:20.046Z,93.12
2022-09-15T05:28:47.802Z,93.14
2022-09-15T05:31:22.974Z,93.19
2022-09-15T05:33:54.307Z,93.17
2022-09-15T05:36:25.694Z,93.08
2022-09-15T05:38:57.186Z,92.93
2022-09-15T05:41:26.939Z,93.04
2022-09-15T05:43:59.261Z,93.03
2022-09-15T05:46:32.249Z,92.90
2022-09-15T05:49:03.489Z,92.82
2022-09-15T05:51:37.216Z,92.91
2022-09-15T05:54:09.820Z,92.70
2022-09-15T05:56:40.765Z,92.68
2022-09-15T05:59:08.991Z,92.49
2022-09-15T06:01:39.322Z,92.34
2022-09-15T06:04:07.901Z,92.29
2022-09-15T06:06:38.754Z,92.20
2022-09-15T06:09:06.754Z,91.89
2022-09-15T06:11:35.180Z,91.84
2022-09-15T06:14:04.177Z,91.11
2022-09-15T06:16:34.725Z,91.07
2022-09-15T06:19:04.318Z,90.79
2022-09-15T06:21:35.282Z,90.72
2022-09-15T06:24:07.572Z,90.02
2022-09-15T06:26:35.746Z,89.47
2022-09-15T06:29:05.622Z,89.45
2022-09-15T06:31:39.060Z,89.00
2022-09-15T06:36:54.403Z,89.15
2022-09-15T06:39:22.316Z,88.81
2022-09-15T06:42:02.307Z,88.99
2022-09-15T06:44:34.760Z,88.91
2022-09-15T06:47:03.043Z,87.55
2022-09-15T06:49:31.330Z,86.96
2022-09-15T06:52:02.345Z,87.07
2022-09-15T06:54:31.442Z,87.17
2022-09-15T06:56:59.596Z,87.09
2022-09-15T06:59:28.568Z,86.62
2022-09-15T07:02:05.245Z,86.82
2022-09-15T07:04:37.304Z,87.15
2022-09-15T07:07:05.299Z,86.65
2022-09-15T07:09:34.515Z,86.46
2022-09-15T07:12:03.413Z,86.08
2022-09-15T07:14:31.212Z,86.03
2022-09-15T07:16:59.007Z,86.45
2022-09-15T07:19:27.435Z,85.85
2022-09-15T07:22:03.462Z,84.36
2022-09-15T07:24:31.735Z,84.57
2022-09-15T07:27:00.970Z,84.19
2022-09-15T07:29:28.827Z,84.85
2022-09-15T07:31:57.955Z,83.72
2022-09-15T07:34:26.026Z,83.64
2022-09-15T07:36:55.447Z,82.93
2022-09-15T07:39:26.333Z,82.94
2022-09-15T07:41:55.346Z,82.02
2022-09-15T07:44:23.175Z,81.94
2022-09-15T07:46:52.908Z,82.23
2022-09-15T07:49:21.017Z,82.67
2022-09-15T07:51:48.917Z,81.95
2022-09-15T07:54:21.093Z,81.20
2022-09-15T07:56:51.329Z,80.13
2022-09-15T07:59:19.033Z,80.13
2022-09-15T08:01:47.727Z,79.54
2022-09-15T08:04:16.021Z,79.32
2022-09-15T08:06:44.058Z,80.38
2022-09-15T08:09:14.893Z,80.04
2022-09-15T08:11:45.580Z,79.65
2022-09-15T08:14:15.367Z,79.41
2022-09-15T08:16:45.732Z,78.63
2022-09-15T08:19:14.445Z,79.18
2022-09-15T08:21:43.342Z,79.15
2022-09-15T08:24:11.239Z,79.37
2022-09-15T08:26:39.576Z,77.51
2022-09-15T08:29:08.271Z,76.00
2022-09-15T08:31:36.370Z,75.52
2022-09-15T08:34:07.270Z,74.84
2022-09-15T08:36:35.080Z,74.51
2022-09-15T08:39:05.336Z,74.38
2022-09-15T08:41:42.235Z,74.28
2022-09-15T08:44:31.778Z,74.29
2022-09-15T08:47:25.254Z,74.13
2022-09-15T08:50:08.031Z,72.72
2022-09-15T08:52:45.505Z,70.71
2022-09-15T08:55:21.819Z,71.49
2022-09-15T08:57:54.512Z,71.61
2022-09-15T09:00:22.973Z,69.87
2022-09-15T09:03:06.787Z,70.31
2022-09-15T09:06:09.856Z,71.12
2022-09-15T09:09:00.423Z,70.42
2022-09-15T09:11:49.635Z,70.43
2022-09-15T09:14:41.543Z,70.34
2022-09-15T09:17:45.809Z,69.98
2022-09-15T09:20:36.321Z,69.57
2022-09-15T09:23:10.404Z,69.31
2022-09-15T09:25:41.766Z,68.97
2022-09-15T09:28:37.382Z,68.46
2022-09-15T09:31:08.458Z,68.19
2022-09-15T09:34:17.711Z,68.48
2022-09-15T09:36:58.467Z,69.33
2022-09-15T09:39:28.295Z,69.81
2022-09-15T09:41:56.253Z,70.05
2022-09-15T09:44:32.025Z,69.97
2022-09-15T09:47:01.849Z,68.54
2022-09-15T09:49:34.773Z,67.59
2022-09-15T09:52:04.931Z,66.48
2022-09-15T09:54:35.443Z,66.34
2022-09-15T09:57:36.602Z,66.55
2022-09-15T10:00:32.166Z,66.25
2022-09-15T10:03:11.810Z,66.22
2022-09-15T10:05:40.500Z,66.36
2022-09-15T10:08:19.447Z,66.36
2022-09-15T10:10:57.113Z,66.15
2022-09-15T10:13:27.167Z,64.41
2022-09-15T10:16:20.922Z,64.87
2022-09-15T10:18:54.318Z,62.36
2022-09-15T10:21:24.881Z,62.48
2022-09-15T10:23:53.257Z,62.33
2022-09-15T10:26:32.293Z,61.79
2022-09-15T10:29:13.166Z,61.30
2022-09-15T10:31:42.023Z,62.07
2022-09-15T10:34:27.802Z,60.74
2022-09-15T10:37:19.732Z,60.36
2022-09-15T10:39:54.285Z,59.81
2022-09-15T10:42:40.236Z,61.21
2022-09-15T10:45:18.375Z,59.63
2022-09-15T10:48:20.139Z,60.02
2022-09-15T10:50:50.936Z,59.68
2022-09-15T10:53:49.799Z,59.99
2022-09-15T10:56:41.978Z,60.56
2022-09-15T10:59:14.203Z,60.69
2022-09-15T11:01:58.372Z,59.80
2022-09-15T11:04:52.274Z,58.93
2022-09-15T11:07:38.318Z,59.51
2022-09-15T11:10:30.114Z,59.05
2022-09-15T11:13:19.614Z,59.31
2022-09-15T11:15:55.245Z,59.83
2022-09-15T11:18:45.207Z,59.38
2022-09-15T11:21:33.498Z,58.97
2022-09-15T11:24:29.044Z,58.25
2022-09-15T11:27:03.536Z,59.07
2022-09-15T11:29:52.445Z,58.80
2022-09-15T11:32:26.055Z,57.96
2022-09-15T11:35:04.986Z,58.40
2022-09-15T11:37:40.707Z,59.09
2022-09-15T11:40:34.582Z,59.33
2022-09-15T11:43:25.377Z,58.56
2022-09-15T11:45:59.598Z,58.13
2022-09-15T11:48:42.771Z,57.19
2022-09-15T11:51:14.045Z,57.67
2022-09-15T11:53:41.915Z,57.41
2022-09-15T11:56:22.368Z,57.14
2022-09-15T11:59:28.694Z,57.54
2022-09-15T12:02:16.089Z,57.12
2022-09-15T12:05:26.634Z,57.88
2022-09-15T12:08:14.530Z,56.76
2022-09-15T12:10:57.076Z,56.92
2022-09-15T12:13:27.565Z,56.46
2022-09-15T12:16:07.126Z,57.32
2022-09-15T12:18:51.387Z,57.53
2022-09-15T12:21:54.764Z,57.87
2022-09-15T12:24:51.329Z,57.70
2022-09-15T12:27:21.363Z,57.87
2022-09-15T12:29:58.372Z,58.26
2022-09-15T12:32:32.110Z,58.39
2022-09-15T12:35:17.773Z,59.02
2022-09-15T12:37:50.096Z,59.59
2022-09-15T12:40:30.786Z,59.89
2022-09-15T12:42:59.354Z,59.91
2022-09-15T12:45:36.372Z,60.23
2022-09-15T12:48:15.913Z,60.09
2022-09-15T12:50:53.327Z,60.11
2022-09-15T12:53:26.035Z,60.27
2022-09-15T12:55:57.104Z,60.57
2022-09-15T12:58:45.711Z,61.10
2022-09-15T13:01:19.686Z,60.97
2022-09-15T13:03:49.046Z,61.11
2022-09-15T13:06:21.861Z,61.18
2022-09-15T13:09:01.897Z,61.30
2022-09-15T13:11:38.612Z,61.73
2022-09-15T13:14:20.854Z,61.60
2022-09-15T13:17:07.306Z,61.09
2022-09-15T13:19:46.716Z,60.94
2022-09-15T13:22:27.423Z,60.29
2022-09-15T13:25:05.472Z,60.30
2022-09-15T13:27:40.931Z,60.47
2022-09-15T13:30:20.875Z,60.47
2022-09-15T13:33:08.109Z,60.34
2022-09-15T13:35:54.624Z,60.20
2022-09-15T13:38:40.756Z,59.86
2022-09-15T13:41:20.926Z,58.57
2022-09-15T13:44:27.951Z,58.42
2022-09-15T13:47:21.321Z,58.27
2022-09-15T13:50:11.928Z,58.04
2022-09-15T13:52:48.907Z,57.55
2022-09-15T13:55:25.520Z,57.61
2022-09-15T14:00:55.618Z,56.27
2022-09-15T14:03:39.628Z,56.60
2022-09-15T14:06:18.188Z,58.27
2022-09-15T14:08:50.156Z,59.32
2022-09-15T14:11:26.695Z,60.13
2022-09-15T14:13:57.523Z,60.83
2022-09-15T14:16:28.701Z,60.05
2022-09-15T14:18:58.595Z,60.02
2022-09-15T14:21:30.515Z,60.20
2022-09-15T14:24:04.100Z,60.39
2022-09-15T14:26:35.768Z,60.58
2022-09-15T14:29:06.245Z,60.86
2022-09-15T14:31:43.724Z,61.05
2022-09-15T14:34:16.738Z,61.01
2022-09-15T14:36:47.296Z,61.19
2022-09-15T14:39:20.816Z,61.27
2022-09-15T14:41:50.332Z,61.21
2022-09-15T14:47:28.203Z,60.69
2022-09-15T14:50:08.193Z,60.77
2022-09-15T14:52:43.552Z,60.38
2022-09-15T14:55:19.001Z,59.93
2022-09-15T14:57:54.276Z,59.02
2022-09-15T15:00:28.764Z,59.00
2022-09-15T15:03:22.694Z,58.57
2022-09-15T15:06:02.831Z,58.22
2022-09-15T15:08:42.280Z,56.61
2022-09-15T15:11:12.723Z,56.18
2022-09-15T15:13:45.507Z,56.68
2022-09-15T15:16:21.489Z,57.36
2022-09-15T15:18:51.583Z,57.69
2022-09-15T15:21:35.178Z,57.48
2022-09-15T15:24:15.523Z,57.50
2022-09-15T15:26:46.143Z,57.50
2022-09-15T15:29:43.821Z,56.72
2022-09-15T15:32:17.526Z,55.83
2022-09-15T15:34:54.369Z,55.40
2022-09-15T15:37:27.716Z,55.16
2022-09-15T15:40:04.557Z,55.01
2022-09-15T15:42:32.938Z,54.89
2022-09-15T15:45:06.381Z,55.03
2022-09-15T15:47:37.064Z,55.24
2022-09-15T15:50:29.316Z,56.08
2022-09-15T15:52:57.385Z,56.42
2022-09-15T15:55:35.857Z,56.79
2022-09-15T15:58:05.591Z,57.43
2022-09-15T16:00:39.698Z,57.88
2022-09-15T16:03:09.199Z,58.40
2022-09-15T16:05:38.642Z,58.72
2022-09-15T16:08:12.918Z,59.03
2022-09-15T16:10:44.711Z,59.48
2022-09-15T16:13:18.216Z,59.62
2022-09-15T16:15:46.526Z,59.63
2022-09-15T16:18:15.107Z,59.91
2022-09-15T16:20:43.586Z,60.15
2022-09-15T16:23:22.443Z,60.66
2022-09-15T16:26:05.812Z,61.03
2022-09-15T16:28:36.719Z,61.43
2022-09-15T16:31:06.502Z,61.93
2022-09-15T16:33:38.090Z,62.30
2022-09-15T16:36:08.962Z,62.72
2022-09-15T16:38:37.099Z,63.06
2022-09-15T16:41:15.628Z,63.65
2022-09-15T16:44:19.416Z,63.94
2022-09-15T16:46:48.287Z,64.17
2022-09-15T16:49:16.754Z,64.42
2022-09-15T16:51:45.194Z,65.00
2022-09-15T16:54:23.174Z,65.31
2022-09-15T16:57:19.615Z,65.49
2022-09-15T16:59:51.675Z,65.67
2022-09-15T17:02:24.814Z,65.67
2022-09-15T17:04:53.697Z,66.14
2022-09-15T17:07:22.586Z,66.23
2022-09-15T17:09:52.971Z,66.23
2022-09-15T17:12:32.968Z,66.48
2022-09-15T17:15:17.583Z,66.61
2022-09-15T17:17:48.421Z,66.64
2022-09-15T17:20:19.215Z,66.96
2022-09-15T17:22:48.367Z,67.04
2022-09-15T17:25:40.209Z,67.08
2022-09-15T17:28:09.459Z,67.26
2022-09-15T17:30:56.188Z,67.53
2022-09-15T17:33:24.947Z,68.08
2022-09-15T17:36:14.299Z,68.82
2022-09-15T17:38:49.268Z,68.91
2022-09-15T17:41:22.581Z,69.31
2022-09-15T17:43:52.703Z,69.33
2022-09-15T17:46:26.429Z,69.04
2022-09-15T17:49:04.094Z,68.95
2022-09-15T17:51:35.614Z,68.99
2022-09-15T17:54:09.075Z,69.00
2022-09-15T17:56:40.170Z,69.09
2022-09-15T17:59:13.060Z,69.31
2022-09-15T18:01:55.852Z,69.44
2022-09-15T18:04:24.597Z,69.95
2022-09-15T18:06:55.816Z,69.82
2022-09-15T18:09:25.655Z,69.88
2022-09-15T18:11:56.687Z,69.81
2022-09-15T18:14:27.324Z,69.82
2022-09-15T18:16:55.547Z,69.83
2022-09-15T18:19:23.947Z,69.85
2022-09-15T18:21:54.105Z,69.74
2022-09-15T18:24:29.376Z,69.80
2022-09-15T18:26:57.208Z,69.71
2022-09-15T18:29:27.448Z,69.88
2022-09-15T18:31:58.046Z,69.73
2022-09-15T18:34:32.399Z,69.68
2022-09-15T18:37:10.343Z,69.72
2022-09-15T18:39:41.857Z,69.85
2022-09-15T18:42:13.366Z,69.92
2022-09-15T18:44:43.087Z,70.03
2022-09-15T18:47:14.474Z,69.91
2022-09-15T18:49:45.659Z,70.33
2022-09-15T18:52:16.453Z,70.32
2022-09-15T18:54:44.938Z,70.45
2022-09-15T18:57:15.820Z,70.57
2022-09-15T18:59:48.906Z,70.80
2022-09-15T19:02:20.764Z,70.84
2022-09-15T19:04:51.420Z,70.85
2022-09-15T19:07:28.295Z,71.12
2022-09-15T19:09:56.873Z,71.23
2022-09-15T19:12:34.756Z,71.63
2022-09-15T19:15:10.860Z,71.84
2022-09-15T19:17:44.372Z,72.27
2022-09-15T19:20:24.577Z,72.51
2022-09-15T19:22:55.483Z,72.62
2022-09-15T19:25:24.332Z,73.13
2022-09-15T19:27:52.785Z,72.99
2022-09-15T19:30:21.344Z,73.49
2022-09-15T19:33:05.658Z,73.88
2022-09-15T19:35:37.101Z,74.04
2022-09-15T19:38:12.037Z,74.23
2022-09-15T19:40:48.989Z,74.48
2022-09-15T19:43:16.897Z,75.03
2022-09-15T19:45:48.172Z,74.77
2022-09-15T19:48:17.433Z,75.03
2022-09-15T19:50:47.986Z,75.73
2022-09-15T19:53:16.410Z,75.94
2022-09-15T19:55:52.468Z,75.66
2022-09-15T19:58:20.622Z,76.45
2022-09-15T20:00:55.984Z,76.44
2022-09-15T20:03:29.567Z,76.47
2022-09-15T20:05:58.602Z,76.57
2022-09-15T20:08:34.037Z,76.68
2022-09-15T20:11:09.782Z,76.76
2022-09-15T20:13:49.756Z,76.74
2022-09-15T20:16:25.478Z,76.98
2022-09-15T20:19:04.049Z,76.72
2022-09-15T20:21:53.018Z,76.86
2022-09-15T20:24:24.014Z,76.85
2022-09-15T20:27:03.183Z,76.85
2022-09-15T20:29:33.531Z,76.72
2022-09-15T20:32:06.798Z,76.94
2022-09-15T20:34:35.197Z,76.98
2022-09-15T20:37:03.516Z,76.82
2022-09-15T20:39:34.631Z,76.73
2022-09-15T20:42:04.880Z,76.64
2022-09-15T20:44:40.025Z,76.59
2022-09-15T20:47:08.206Z,76.52
2022-09-15T20:49:38.516Z,76.35
2022-09-15T20:52:06.450Z,76.42
2022-09-15T20:54:37.922Z,76.28
2022-09-15T20:57:11.017Z,76.26
2022-09-15T20:59:58.660Z,76.19
2022-09-15T21:02:27.156Z,76.11
2022-09-15T21:04:55.407Z,76.19
2022-09-15T21:07:23.781Z,76.19
2022-09-15T21:10:04.400Z,76.23
2022-09-15T21:12:39.126Z,76.32
2022-09-15T21:15:14.064Z,76.39
2022-09-15T21:17:50.742Z,76.51
2022-09-15T21:21:03.299Z,76.51
2022-09-15T21:23:41.226Z,76.72
2022-09-15T21:26:14.396Z,76.78
2022-09-15T21:29:21.173Z,76.95
2022-09-15T21:32:04.552Z,76.98
2022-09-15T21:34:39.056Z,77.12
2022-09-15T21:37:37.666Z,77.07
2022-09-15T21:40:22.530Z,77.44
2022-09-15T21:43:18.708Z,77.37
2022-09-15T21:46:16.371Z,77.72
2022-09-15T21:49:24.564Z,77.88
2022-09-15T21:51:58.181Z,78.14
2022-09-15T21:54:43.923Z,78.37
2022-09-15T21:57:39.920Z,78.51
2022-09-15T22:00:41.070Z,78.63
2022-09-15T22:03:14.286Z,78.72
2022-09-15T22:05:53.044Z,78.82
2022-09-15T22:08:33.359Z,79.02
2022-09-15T22:11:15.179Z,78.99
2022-09-15T22:14:08.896Z,78.97
2022-09-15T22:16:50.415Z,79.35
2022-09-15T22:19:48.676Z,79.35
2022-09-15T22:22:44.507Z,79.09
2022-09-15T22:25:21.673Z,79.12
2022-09-15T22:27:56.903Z,78.99
2022-09-15T22:30:42.476Z,78.98
2022-09-15T22:33:28.056Z,78.95
2022-09-15T22:36:07.753Z,78.98
2022-09-15T22:38:58.726Z,78.84
2022-09-15T22:42:16.060Z,78.69
2022-09-15T22:45:15.574Z,78.51
2022-09-15T22:47:49.585Z,78.49
2022-09-15T22:50:20.978Z,78.32
2022-09-15T22:53:08.119Z,78.33
2022-09-15T22:56:31.461Z,78.24
2022-09-15T22:59:00.475Z,78.17
2022-09-15T23:01:38.347Z,78.08
2022-09-15T23:04:29.871Z,77.95
2022-09-15T23:07:05.098Z,77.90
2022-09-15T23:09:40.734Z,77.64
2022-09-15T23:12:18.790Z,77.60
2022-09-15T23:15:04.245Z,77.29
2022-09-15T23:17:39.765Z,77.32
2022-09-15T23:20:09.663Z,77.24
2022-09-15T23:22:37.819Z,77.09
2022-09-15T23:25:38.972Z,77.03
2022-09-15T23:28:41.663Z,77.04
2022-09-15T23:31:23.050Z,76.91
2022-09-15T23:34:01.463Z,76.85
2022-09-15T23:37:04.132Z,76.75
2022-09-15T23:39:41.228Z,76.67
2022-09-15T23:42:21.658Z,76.65
2022-09-15T23:45:17.299Z,76.47
2022-09-15T23:47:53.550Z,76.59
2022-09-15T23:50:39.746Z,76.64
2022-09-15T23:53:20.242Z,76.59
2022-09-15T23:56:29.874Z,76.67
2022-09-15T23:59:06.628Z,76.75
